Time;durP1;ratioP1;P1;durP2;ratioP2;P2;SDS_P1;SDS_P2;PMS_P1;PMS_P2;Temp;Humidity;BMP_temperature;BMP_pressure;BME280_temperature;BME280_humidity;BME280_pressure;Samples;Min_cycle;Max_cycle;Signal;HPM_P1;HPM_P2
2021/06/10 00:00:39;;;;;;;17.50;15.90;;;15.30;94.70;;;;;;5103317;27;20051;-64
2021/06/10 00:03:06;;;;;;;16.50;14.85;;;15.30;95.00;;;;;;5099674;28;20055;-64
2021/06/10 00:05:32;;;;;;;18.73;16.98;;;15.20;94.80;;;;;;5100829;27;20039;-65
2021/06/10 00:07:58;;;;;;;18.00;16.27;;;15.20;95.30;;;;;;5092684;28;20032;-64
2021/06/10 00:10:25;;;;;;;18.40;16.50;;;15.10;95.60;;;;;;5100387;28;20061;-64
2021/06/10 00:12:52;;;;;;;17.73;16.02;;;15.00;95.80;;;;;;5106837;28;20036;-65
2021/06/10 00:15:21;;;;;;;16.20;14.55;;;15.00;95.80;;;;;;5095058;28;20551;-65
2021/06/10 00:17:48;;;;;;;18.05;16.35;;;15.00;95.80;;;;;;5096975;28;20032;-65
2021/06/10 00:20:17;;;;;;;18.95;17.13;;;14.90;95.90;;;;;;5096243;28;20483;-65
2021/06/10 00:22:43;;;;;;;17.45;15.73;;;14.90;96.20;;;;;;5098881;28;20097;-65
2021/06/10 00:25:10;;;;;;;18.67;16.88;;;14.80;96.10;;;;;;5094371;28;20047;-65
2021/06/10 00:27:36;;;;;;;16.65;15.05;;;14.80;96.10;;;;;;5104591;28;20039;-65
2021/06/10 00:30:08;;;;;;;18.90;17.10;;;14.70;96.00;;;;;;5095558;28;20096;-65
2021/06/10 00:32:34;;;;;;;18.75;17.08;;;14.70;96.10;;;;;;5105101;28;20059;-64
2021/06/10 00:35:01;;;;;;;18.63;16.88;;;14.70;96.30;;;;;;5098256;28;20530;-64
2021/06/10 00:37:27;;;;;;;20.05;18.08;;;14.60;96.30;;;;;;5094572;28;20122;-64
2021/06/10 00:39:53;;;;;;;18.58;16.77;;;14.60;96.40;;;;;;5091823;28;20143;-64
2021/06/10 00:42:21;;;;;;;20.33;18.42;;;14.60;96.70;;;;;;5105561;28;20043;-64
2021/06/10 00:44:47;;;;;;;18.92;17.17;;;14.50;96.70;;;;;;5087557;28;20036;-64
2021/06/10 00:47:13;;;;;;;19.83;17.83;;;14.50;96.70;;;;;;5096822;28;20100;-64
2021/06/10 00:49:38;;;;;;;19.15;17.23;;;14.50;96.60;;;;;;5091084;28;20513;-64
2021/06/10 00:52:05;;;;;;;18.00;16.33;;;14.40;96.50;;;;;;5099395;28;20035;-64
2021/06/10 00:54:31;;;;;;;17.85;16.05;;;14.40;96.50;;;;;;5110016;28;20085;-64
2021/06/10 00:56:57;;;;;;;19.77;17.77;;;14.40;96.60;;;;;;5100442;27;20522;-64
2021/06/10 00:59:22;;;;;;;22.15;18.58;;;14.40;96.60;;;;;;5100240;27;20040;-64
2021/06/10 01:01:49;;;;;;;22.80;20.52;;;14.30;96.50;;;;;;5099873;27;20130;-64
2021/06/10 01:04:14;;;;;;;20.73;18.75;;;14.30;96.80;;;;;;5103011;28;20392;-64
2021/06/10 01:07:02;;;;;;;19.92;18.02;;;14.30;97.20;;;;;;5100068;27;20042;-65
2021/06/10 01:09:42;;;;;;;20.40;18.42;;;14.30;96.80;;;;;;5105036;27;20134;-64
2021/06/10 01:12:18;;;;;;;19.65;17.65;;;14.30;96.60;;;;;;5103960;27;20473;-65
2021/06/10 01:14:55;;;;;;;20.90;18.50;;;14.20;96.50;;;;;;5104087;27;20066;-65
2021/06/10 01:17:23;;;;;;;19.33;17.42;;;14.20;96.50;;;;;;5103406;27;20536;-64
2021/06/10 01:20:02;;;;;;;19.00;17.20;;;14.10;96.40;;;;;;5108594;27;20495;-64
2021/06/10 01:22:40;;;;;;;17.00;15.45;;;14.10;96.30;;;;;;5103887;28;20131;-64
2021/06/10 01:25:33;;;;;;;19.50;17.50;;;14.10;96.30;;;;;;5104109;28;20055;-64
2021/06/10 01:28:22;;;;;;;19.23;17.48;;;14.00;96.60;;;;;;5101691;27;20363;-64
2021/06/10 01:30:53;;;;;;;22.02;20.02;;;14.00;96.60;;;;;;5104661;27;20040;-64
2021/06/10 01:33:30;;;;;;;21.17;19.17;;;14.00;96.60;;;;;;5100307;27;20402;-64
2021/06/10 01:36:00;;;;;;;24.00;21.60;;;14.00;96.60;;;;;;5111298;27;20096;-64
2021/06/10 01:38:27;;;;;;;22.08;19.80;;;13.90;96.90;;;;;;5105050;27;20133;-64
2021/06/10 01:40:55;;;;;;;20.73;18.83;;;13.90;97.20;;;;;;5106336;27;20040;-64
2021/06/10 01:43:25;;;;;;;20.98;18.20;;;13.80;97.00;;;;;;5097539;28;20570;-64
2021/06/10 01:45:51;;;;;;;21.13;19.08;;;13.80;97.00;;;;;;5106693;28;20047;-64
2021/06/10 01:48:19;;;;;;;20.67;18.50;;;13.70;96.90;;;;;;5098902;28;20066;-64
2021/06/10 01:50:49;;;;;;;19.60;17.67;;;13.70;97.00;;;;;;5100725;28;20051;-64
2021/06/10 01:53:17;;;;;;;24.98;22.48;;;13.70;97.10;;;;;;5100335;28;20483;-64
2021/06/10 01:55:45;;;;;;;19.75;17.92;;;13.50;97.20;;;;;;5108770;27;20035;-64
2021/06/10 01:58:11;;;;;;;20.95;18.33;;;13.50;97.30;;;;;;5098973;28;20479;-64
2021/06/10 02:00:40;;;;;;;23.25;21.00;;;13.50;97.30;;;;;;5103971;28;20051;-64
2021/06/10 02:03:07;;;;;;;21.75;19.73;;;13.40;97.40;;;;;;5097115;28;20070;-64
2021/06/10 02:05:37;;;;;;;26.70;23.50;;;13.30;97.50;;;;;;5085580;28;20054;-64
2021/06/10 02:08:11;;;;;;;25.15;22.60;;;13.30;97.60;;;;;;5093024;28;20446;-64
2021/06/10 02:10:39;;;;;;;24.55;22.13;;;13.30;97.70;;;;;;5108115;28;20118;-64
2021/06/10 02:13:08;;;;;;;27.60;24.70;;;13.20;97.80;;;;;;5096003;28;20067;-64
2021/06/10 02:15:40;;;;;;;24.25;21.95;;;13.20;97.90;;;;;;5106389;28;20484;-64
2021/06/10 02:18:06;;;;;;;21.02;18.98;;;13.20;98.00;;;;;;5090371;28;20480;-64
2021/06/10 02:20:37;;;;;;;20.60;18.50;;;13.10;97.90;;;;;;5103307;28;20085;-64
2021/06/10 02:23:06;;;;;;;20.58;18.67;;;13.10;97.80;;;;;;5098918;28;20059;-64
2021/06/10 02:25:33;;;;;;;22.20;20.00;;;13.10;97.90;;;;;;5096678;28;20087;-64
2021/06/10 02:27:59;;;;;;;22.80;20.60;;;13.00;97.70;;;;;;5102884;28;20043;-64
2021/06/10 02:30:25;;;;;;;24.05;21.65;;;13.00;97.70;;;;;;5093602;28;20043;-64
2021/06/10 02:32:51;;;;;;;21.05;19.05;;;13.00;97.80;;;;;;5099416;28;20035;-64
2021/06/10 02:35:17;;;;;;;20.33;18.42;;;13.00;97.80;;;;;;5101296;28;20051;-64
2021/06/10 02:37:46;;;;;;;20.77;18.58;;;12.90;97.70;;;;;;5099237;28;20052;-64
2021/06/10 02:40:16;;;;;;;21.77;19.77;;;12.90;97.70;;;;;;5094093;28;20050;-64
2021/06/10 02:42:43;;;;;;;22.48;20.27;;;12.90;97.70;;;;;;5101273;27;20142;-64
2021/06/10 02:45:10;;;;;;;23.85;21.40;;;12.80;97.70;;;;;;5090644;28;20115;-64
2021/06/10 02:47:37;;;;;;;26.13;23.45;;;12.80;97.80;;;;;;5097756;28;20062;-64
2021/06/10 02:50:06;;;;;;;23.17;20.88;;;12.70;98.00;;;;;;5096550;27;20039;-64
2021/06/10 02:52:35;;;;;;;24.88;22.20;;;12.70;98.30;;;;;;5100548;28;20051;-64
2021/06/10 02:55:01;;;;;;;21.92;19.83;;;12.70;98.50;;;;;;5099816;28;20046;-64
2021/06/10 02:57:28;;;;;;;20.75;18.40;;;12.60;98.50;;;;;;5102051;27;20056;-64
2021/06/10 02:59:54;;;;;;;21.10;19.08;;;12.60;98.40;;;;;;5093212;28;20042;-64
2021/06/10 03:02:20;;;;;;;20.63;18.63;;;12.60;98.30;;;;;;5099948;28;20068;-64
2021/06/10 03:04:47;;;;;;;19.77;17.88;;;12.60;98.30;;;;;;5095505;28;20044;-64
2021/06/10 03:07:17;;;;;;;19.30;17.52;;;12.60;98.30;;;;;;5102895;27;20503;-64
2021/06/10 03:09:45;;;;;;;19.98;18.00;;;12.60;98.30;;;;;;5098110;28;20105;-64
2021/06/10 03:12:14;;;;;;;20.73;18.77;;;12.50;98.30;;;;;;5098160;28;20526;-64
2021/06/10 03:14:42;;;;;;;19.08;17.13;;;12.50;98.30;;;;;;5099631;28;20024;-64
2021/06/10 03:17:14;;;;;;;20.52;18.63;;;12.50;98.30;;;;;;5093544;28;20483;-64
2021/06/10 03:19:41;;;;;;;19.40;17.50;;;12.50;98.30;;;;;;5108262;28;20112;-64
2021/06/10 03:22:07;;;;;;;16.48;14.68;;;12.50;98.20;;;;;;5092452;28;20043;-64
2021/06/10 03:24:34;;;;;;;19.20;17.27;;;12.50;98.20;;;;;;5098017;28;20054;-64
2021/06/10 03:27:02;;;;;;;22.23;19.85;;;12.40;98.10;;;;;;5089771;28;20170;-64
2021/06/10 03:29:28;;;;;;;21.95;19.75;;;12.50;98.20;;;;;;5102185;28;20242;-64
2021/06/10 03:31:54;;;;;;;18.88;17.00;;;12.50;98.30;;;;;;5092106;28;20039;-64
2021/06/10 03:34:21;;;;;;;24.25;21.65;;;12.50;98.20;;;;;;5093452;28;20047;-64
2021/06/10 03:36:50;;;;;;;20.60;18.50;;;12.40;98.20;;;;;;5102755;28;20036;-64
2021/06/10 03:39:19;;;;;;;20.45;18.45;;;12.40;98.30;;;;;;5098833;28;20035;-64
2021/06/10 03:41:46;;;;;;;21.15;19.15;;;12.40;98.30;;;;;;5090799;28;20055;-64
2021/06/10 03:44:14;;;;;;;21.42;19.35;;;12.40;98.30;;;;;;5100490;28;20040;-64
2021/06/10 03:46:42;;;;;;;21.55;19.45;;;12.40;98.20;;;;;;5093257;28;20039;-64
2021/06/10 03:49:11;;;;;;;20.00;18.00;;;12.40;98.20;;;;;;5104105;28;20092;-64
2021/06/10 03:51:37;;;;;;;20.20;18.20;;;12.40;98.20;;;;;;5087418;28;20055;-64
2021/06/10 03:54:07;;;;;;;21.88;19.63;;;12.40;98.40;;;;;;5105604;27;20048;-64
2021/06/10 03:56:34;;;;;;;23.83;21.27;;;12.50;98.40;;;;;;5096575;28;20039;-64
2021/06/10 03:59:01;;;;;;;23.27;21.10;;;12.50;98.40;;;;;;5088063;28;20053;-64
2021/06/10 04:01:26;;;;;;;22.50;20.35;;;12.50;98.50;;;;;;5107595;28;20185;-64
2021/06/10 04:03:52;;;;;;;22.52;20.33;;;12.60;98.60;;;;;;5092500;28;20115;-64
2021/06/10 04:06:25;;;;;;;29.25;24.65;;;12.60;98.60;;;;;;5097376;28;20060;-64
2021/06/10 04:09:01;;;;;;;25.48;22.70;;;12.60;98.70;;;;;;5094969;27;20473;-64
2021/06/10 04:11:28;;;;;;;24.63;22.30;;;12.70;98.90;;;;;;5099995;28;20411;-64
2021/06/10 04:13:54;;;;;;;32.13;28.55;;;12.70;99.10;;;;;;5090440;27;20040;-64
2021/06/10 04:16:23;;;;;;;27.13;24.45;;;12.70;99.50;;;;;;5092768;28;20480;-64
2021/06/10 04:18:51;;;;;;;25.83;23.23;;;12.70;99.40;;;;;;5092533;28;20043;-64
2021/06/10 04:21:17;;;;;;;26.73;23.92;;;12.80;99.50;;;;;;5100777;27;20564;-64
2021/06/10 04:23:44;;;;;;;31.05;27.75;;;12.80;99.50;;;;;;5090590;28;20109;-64
2021/06/10 04:26:10;;;;;;;27.42;24.42;;;12.90;99.60;;;;;;5102786;28;20063;-64
2021/06/10 04:28:41;;;;;;;34.13;30.55;;;13.00;99.70;;;;;;5095465;28;20376;-64
2021/06/10 04:31:07;;;;;;;34.22;30.48;;;13.10;99.80;;;;;;5098415;28;20040;-64
2021/06/10 04:33:34;;;;;;;35.28;31.45;;;13.10;99.80;;;;;;5075209;28;20043;-64
2021/06/10 04:36:00;;;;;;;38.05;32.67;;;13.20;99.90;;;;;;5102828;27;20074;-64
2021/06/10 04:38:31;;;;;;;39.28;34.60;;;13.30;99.90;;;;;;5096873;28;20040;-64
2021/06/10 04:40:57;;;;;;;34.53;30.88;;;13.40;99.90;;;;;;5099291;28;20047;-65
2021/06/10 04:43:26;;;;;;;32.50;29.13;;;13.50;99.90;;;;;;5097650;28;20515;-64
2021/06/10 04:45:56;;;;;;;34.22;30.65;;;13.60;99.90;;;;;;5103611;28;20035;-64
2021/06/10 04:48:23;;;;;;;32.58;29.15;;;13.80;99.90;;;;;;5102233;28;20039;-64
2021/06/10 04:50:49;;;;;;;31.27;28.13;;;13.90;99.90;;;;;;5082229;28;20039;-64
2021/06/10 04:53:26;;;;;;;32.45;29.05;;;14.10;99.90;;;;;;5103543;28;20083;-64
2021/06/10 04:55:52;;;;;;;32.15;28.65;;;14.30;99.90;;;;;;5095488;28;20063;-64
2021/06/10 04:58:25;;;;;;;31.95;28.75;;;14.50;99.90;;;;;;5098872;28;20070;-64
2021/06/10 05:00:51;;;;;;;33.63;30.23;;;15.10;99.90;;;;;;5094770;28;20090;-64
2021/06/10 05:03:22;;;;;;;32.25;28.83;;;15.70;99.40;;;;;;5100686;28;20051;-64
2021/06/10 05:05:49;;;;;;;31.33;28.00;;;16.20;98.80;;;;;;5092294;28;20048;-64
2021/06/10 05:08:15;;;;;;;32.97;29.70;;;16.50;97.90;;;;;;5100302;28;20044;-64
2021/06/10 05:10:42;;;;;;;36.58;32.95;;;16.50;97.50;;;;;;5090786;28;20147;-64
2021/06/10 05:13:12;;;;;;;35.55;32.05;;;16.50;97.60;;;;;;5101548;28;20532;-64
2021/06/10 05:15:39;;;;;;;38.10;34.22;;;16.40;97.50;;;;;;5088249;28;20055;-64
2021/06/10 05:18:04;;;;;;;36.60;32.85;;;16.30;97.80;;;;;;5092808;28;20035;-64
2021/06/10 05:20:31;;;;;;;36.33;32.63;;;16.30;98.10;;;;;;5090749;28;20617;-64
2021/06/10 05:22:57;;;;;;;33.33;30.02;;;16.30;98.00;;;;;;5095912;28;20206;-64
2021/06/10 05:25:22;;;;;;;34.22;30.33;;;16.40;98.20;;;;;;5098171;28;20488;-65
2021/06/10 05:27:49;;;;;;;31.13;28.00;;;16.40;98.20;;;;;;5094550;28;20055;-64
2021/06/10 05:30:15;;;;;;;35.30;31.65;;;16.50;98.00;;;;;;5101407;28;20320;-64
2021/06/10 05:32:41;;;;;;;29.58;26.77;;;16.50;98.00;;;;;;5096539;28;20043;-64
2021/06/10 05:35:07;;;;;;;36.42;32.67;;;16.60;97.90;;;;;;5101771;28;20372;-64
2021/06/10 05:37:36;;;;;;;33.40;30.20;;;16.80;98.10;;;;;;5094936;28;20065;-64
2021/06/10 05:40:02;;;;;;;35.22;31.75;;;16.80;97.90;;;;;;5101563;28;20036;-64
2021/06/10 05:42:28;;;;;;;35.80;32.20;;;16.90;97.80;;;;;;5100295;27;20071;-65
2021/06/10 05:44:55;;;;;;;36.05;32.42;;;17.00;97.80;;;;;;5104043;27;20485;-64
2021/06/10 05:47:23;;;;;;;33.15;29.75;;;17.10;97.90;;;;;;5096513;28;20055;-64
2021/06/10 05:49:49;;;;;;;68.20;34.05;;;17.20;97.30;;;;;;5105239;28;20055;-68
2021/06/10 05:52:15;;;;;;;33.88;30.25;;;17.20;97.10;;;;;;5097464;27;20050;-66
2021/06/10 05:54:41;;;;;;;31.65;28.38;;;17.30;97.10;;;;;;5095659;28;20131;-65
2021/06/10 05:57:08;;;;;;;30.85;27.85;;;17.50;97.20;;;;;;5095796;28;20051;-66
2021/06/10 05:59:36;;;;;;;30.45;27.23;;;17.60;96.90;;;;;;5103126;28;20495;-66
2021/06/10 06:02:03;;;;;;;29.23;26.20;;;17.80;96.60;;;;;;5091765;28;20067;-66
2021/06/10 06:04:30;;;;;;;27.80;25.20;;;17.90;96.50;;;;;;5104265;27;20549;-66
2021/06/10 06:06:56;;;;;;;26.98;24.38;;;18.00;96.00;;;;;;5095831;27;20043;-65
2021/06/10 06:09:22;;;;;;;24.35;22.00;;;18.10;95.80;;;;;;5100650;27;20047;-65
2021/06/10 06:11:51;;;;;;;22.90;20.60;;;18.30;95.70;;;;;;5105639;28;20066;-67
2021/06/10 06:14:23;;;;;;;22.65;20.45;;;18.40;95.30;;;;;;5099323;28;20073;-66
2021/06/10 06:16:49;;;;;;;21.85;19.65;;;18.60;95.00;;;;;;5100945;27;20392;-66
2021/06/10 06:19:15;;;;;;;19.30;17.40;;;18.70;95.00;;;;;;5101191;27;20050;-65
2021/06/10 06:21:43;;;;;;;17.52;15.93;;;18.80;93.90;;;;;;5101229;27;20093;-66
2021/06/10 06:24:10;;;;;;;18.85;16.98;;;18.90;93.40;;;;;;5099962;28;20047;-66
2021/06/10 06:26:36;;;;;;;17.88;16.02;;;19.10;93.30;;;;;;5104314;28;20070;-66
2021/06/10 06:29:03;;;;;;;17.80;16.02;;;19.20;93.30;;;;;;5094811;28;20115;-65
2021/06/10 06:31:30;;;;;;;16.70;14.88;;;19.30;92.70;;;;;;5099591;28;20122;-67
2021/06/10 06:33:57;;;;;;;15.18;13.63;;;19.40;92.00;;;;;;5098926;27;20061;-66
2021/06/10 06:36:23;;;;;;;15.93;13.85;;;19.50;91.20;;;;;;5096827;28;20036;-66
2021/06/10 06:38:49;;;;;;;15.95;14.35;;;19.60;91.00;;;;;;5095422;27;20081;-67
2021/06/10 06:41:18;;;;;;;15.68;14.13;;;19.60;90.90;;;;;;5105391;27;20054;-66
2021/06/10 06:43:44;;;;;;;15.35;13.82;;;19.70;90.60;;;;;;5096616;28;20035;-66
2021/06/10 06:46:10;;;;;;;14.73;13.32;;;19.80;90.60;;;;;;5097984;28;20398;-66
2021/06/10 06:48:37;;;;;;;13.93;12.60;;;20.00;90.30;;;;;;5099324;27;20043;-67
2021/06/10 06:51:04;;;;;;;15.15;12.95;;;20.00;89.70;;;;;;5102831;28;20104;-65
2021/06/10 06:53:32;;;;;;;12.90;11.73;;;20.10;89.90;;;;;;5095691;27;20120;-66
2021/06/10 06:55:59;;;;;;;12.02;10.93;;;20.20;90.10;;;;;;5097216;28;20039;-67
2021/06/10 06:58:25;;;;;;;10.85;9.80;;;20.40;88.50;;;;;;5095513;28;20036;-67
2021/06/10 07:00:52;;;;;;;10.85;9.85;;;20.50;86.50;;;;;;5094774;27;20056;-64
2021/06/10 07:03:18;;;;;;;10.30;9.30;;;20.50;85.50;;;;;;5094715;28;20495;-65
2021/06/10 07:05:45;;;;;;;10.95;9.95;;;20.60;85.10;;;;;;5096213;28;20464;-66
2021/06/10 07:08:11;;;;;;;11.32;10.23;;;20.70;83.80;;;;;;5097930;28;20028;-66
2021/06/10 07:10:37;;;;;;;11.63;10.52;;;20.70;85.70;;;;;;5094443;28;20035;-67
2021/06/10 07:13:04;;;;;;;11.23;10.02;;;20.80;83.90;;;;;;5094238;28;20093;-65
2021/06/10 07:15:30;;;;;;;11.60;10.40;;;20.80;83.00;;;;;;5090664;28;20069;-65
2021/06/10 07:17:56;;;;;;;11.45;10.25;;;20.90;83.80;;;;;;5095499;28;20036;-65
2021/06/10 07:20:23;;;;;;;14.50;11.00;;;21.00;82.00;;;;;;5101141;28;20044;-66
2021/06/10 07:22:49;;;;;;;12.00;10.90;;;21.00;81.20;;;;;;5108813;28;20044;-66
2021/06/10 07:25:16;;;;;;;11.93;10.73;;;21.00;81.70;;;;;;5079435;28;20051;-66
2021/06/10 07:27:48;;;;;;;12.27;11.18;;;21.10;83.00;;;;;;5099279;28;20052;-66
2021/06/10 07:30:16;;;;;;;11.85;10.60;;;21.20;82.00;;;;;;5092892;27;20056;-66
2021/06/10 07:32:44;;;;;;;11.90;10.38;;;21.30;81.80;;;;;;5108028;28;20047;-66
2021/06/10 07:35:21;;;;;;;11.25;10.15;;;21.30;80.50;;;;;;5091993;28;20037;-66
2021/06/10 07:37:50;;;;;;;10.85;9.95;;;21.40;80.30;;;;;;5097927;28;20040;-66
2021/06/10 07:40:17;;;;;;;11.55;10.48;;;21.50;79.60;;;;;;5106802;28;20032;-65
2021/06/10 07:42:44;;;;;;;11.20;10.20;;;21.60;79.20;;;;;;5090509;28;20048;-65
2021/06/10 07:45:10;;;;;;;12.25;11.07;;;21.70;79.00;;;;;;5100778;28;20092;-65
2021/06/10 07:47:37;;;;;;;12.15;10.55;;;21.80;78.10;;;;;;5090962;28;20081;-65
2021/06/10 07:50:05;;;;;;;11.15;10.05;;;21.80;79.20;;;;;;5107245;28;20063;-66
2021/06/10 07:52:31;;;;;;;12.32;11.00;;;21.90;77.40;;;;;;5089308;28;20059;-66
2021/06/10 07:54:57;;;;;;;12.63;11.50;;;21.90;78.50;;;;;;5097589;28;20051;-66
2021/06/10 07:57:22;;;;;;;12.50;11.20;;;22.00;77.40;;;;;;5097512;28;20414;-65
2021/06/10 07:59:48;;;;;;;10.60;9.60;;;22.10;76.10;;;;;;5101822;28;20124;-65
2021/06/10 08:02:14;;;;;;;10.98;9.98;;;22.10;77.80;;;;;;5090387;28;20096;-65
2021/06/10 08:04:40;;;;;;;10.52;9.55;;;22.20;76.10;;;;;;5097589;28;20054;-65
2021/06/10 08:07:08;;;;;;;10.75;9.65;;;22.30;75.60;;;;;;5091195;28;20497;-65
2021/06/10 08:09:35;;;;;;;10.77;9.68;;;22.40;75.60;;;;;;5096604;28;20054;-65
2021/06/10 08:12:02;;;;;;;11.20;9.57;;;22.60;74.20;;;;;;5088262;28;20062;-65
2021/06/10 08:14:28;;;;;;;10.57;8.10;;;22.70;73.80;;;;;;5101006;28;20040;-65
2021/06/10 08:16:54;;;;;;;9.70;8.60;;;22.80;73.80;;;;;;5094698;28;20483;-65
2021/06/10 08:19:20;;;;;;;9.05;8.10;;;22.90;73.20;;;;;;5098007;28;20035;-65
2021/06/10 08:21:46;;;;;;;10.38;9.38;;;23.00;72.90;;;;;;5102260;28;20092;-65
2021/06/10 08:24:14;;;;;;;10.02;9.02;;;23.20;72.00;;;;;;5094118;28;20419;-66
2021/06/10 08:26:43;;;;;;;9.60;8.60;;;23.30;72.30;;;;;;5107264;28;20036;-66
2021/06/10 08:29:12;;;;;;;8.60;7.80;;;23.40;71.40;;;;;;5089773;28;20058;-66
2021/06/10 08:31:38;;;;;;;8.48;7.53;;;23.50;68.80;;;;;;5096377;28;20052;-66
2021/06/10 08:34:04;;;;;;;8.40;7.60;;;23.50;68.10;;;;;;5090980;28;20040;-66
2021/06/10 08:36:30;;;;;;;9.05;7.45;;;23.70;70.50;;;;;;5106047;28;20040;-66
2021/06/10 08:38:57;;;;;;;9.05;7.72;;;23.80;68.30;;;;;;5091516;28;20068;-66
2021/06/10 08:41:26;;;;;;;9.38;8.43;;;23.90;68.30;;;;;;5095186;28;20457;-66
2021/06/10 08:43:53;;;;;;;9.50;8.40;;;24.10;67.10;;;;;;5086800;28;20036;-66
2021/06/10 08:46:22;;;;;;;9.57;8.77;;;24.10;67.10;;;;;;5095814;28;20032;-66
2021/06/10 08:48:51;;;;;;;12.25;10.98;;;24.10;65.40;;;;;;5091232;28;20050;-66
2021/06/10 08:51:17;;;;;;;9.80;8.80;;;24.20;65.20;;;;;;5105794;28;20043;-66
2021/06/10 08:53:44;;;;;;;9.40;8.40;;;24.30;62.20;;;;;;5084087;28;20070;-66
2021/06/10 08:56:14;;;;;;;10.63;8.30;;;24.50;63.70;;;;;;5099681;28;20079;-66
2021/06/10 08:58:41;;;;;;;8.85;7.95;;;24.60;62.90;;;;;;5089869;28;20487;-66
2021/06/10 09:01:13;;;;;;;8.20;7.50;;;24.80;62.90;;;;;;5095209;28;20052;-67
2021/06/10 09:03:39;;;;;;;8.35;7.40;;;24.90;62.50;;;;;;5087336;28;20130;-67
2021/06/10 09:06:17;;;;;;;8.38;7.57;;;25.00;62.90;;;;;;5096991;28;20506;-67
2021/06/10 09:08:45;;;;;;;8.60;7.55;;;25.10;61.00;;;;;;5096246;28;20088;-67
2021/06/10 09:11:23;;;;;;;9.10;8.05;;;25.10;59.70;;;;;;5097068;28;20048;-67
2021/06/10 09:13:55;;;;;;;10.82;8.35;;;25.00;55.40;;;;;;5096824;28;20067;-67
2021/06/10 09:16:34;;;;;;;10.57;8.38;;;24.70;59.10;;;;;;5076607;28;20543;-67
2021/06/10 09:19:17;;;;;;;6.63;5.93;;;24.60;58.80;;;;;;5094797;27;20059;-67
2021/06/10 09:21:49;;;;;;;7.25;5.65;;;24.70;59.80;;;;;;5098142;28;20055;-67
2021/06/10 09:24:24;;;;;;;7.75;5.50;;;24.90;58.40;;;;;;5097274;28;20047;-67
2021/06/10 09:27:06;;;;;;;6.10;5.60;;;25.10;59.00;;;;;;5096576;28;20048;-67
2021/06/10 09:29:45;;;;;;;6.72;6.13;;;25.40;54.50;;;;;;5098850;28;20070;-67
2021/06/10 09:32:23;;;;;;;7.78;6.97;;;25.70;55.80;;;;;;5079531;28;20105;-67
2021/06/10 09:34:55;;;;;;;7.80;5.78;;;25.70;54.60;;;;;;5097062;27;20039;-67
2021/06/10 09:37:29;;;;;;;7.28;6.15;;;25.80;56.70;;;;;;5107959;28;20043;-67
2021/06/10 09:39:56;;;;;;;6.72;6.13;;;26.10;55.30;;;;;;5099861;28;20162;-67
2021/06/10 09:42:26;;;;;;;6.50;5.93;;;26.20;56.00;;;;;;5101940;28;20044;-67
2021/06/10 09:44:55;;;;;;;6.95;6.22;;;26.30;54.70;;;;;;5096484;28;20048;-67
2021/06/10 09:47:40;;;;;;;5.88;5.28;;;26.30;54.10;;;;;;5099322;28;20048;-67
2021/06/10 09:50:37;;;;;;;6.07;5.43;;;26.40;54.60;;;;;;5095254;28;20775;-67
2021/06/10 09:53:06;;;;;;;6.68;4.90;;;26.60;53.50;;;;;;5101686;27;20491;-67
2021/06/10 09:55:52;;;;;;;5.55;5.05;;;26.80;52.80;;;;;;5101464;27;20040;-67
2021/06/10 09:58:34;;;;;;;6.22;5.30;;;27.00;53.90;;;;;;5102005;28;20644;-67
2021/06/10 10:01:10;;;;;;;7.03;6.32;;;27.20;51.50;;;;;;5099724;28;20067;-67
2021/06/10 10:03:41;;;;;;;7.65;5.80;;;27.10;51.00;;;;;;5099971;28;20047;-67
2021/06/10 10:06:17;;;;;;;7.93;6.50;;;27.00;50.50;;;;;;5090275;28;20032;-67
2021/06/10 10:09:04;;;;;;;5.07;4.57;;;27.00;53.70;;;;;;5109190;28;20506;-67
2021/06/10 10:11:32;;;;;;;6.93;5.82;;;27.20;52.50;;;;;;5093929;28;20071;-67
2021/06/10 10:14:00;;;;;;;5.97;4.53;;;27.30;51.30;;;;;;5101100;28;20082;-67
2021/06/10 10:16:28;;;;;;;5.32;4.72;;;27.40;52.50;;;;;;5103933;28;20051;-67
2021/06/10 10:18:55;;;;;;;5.95;4.45;;;27.40;52.70;;;;;;5100587;28;20251;-67
2021/06/10 10:21:27;;;;;;;4.68;4.25;;;27.60;51.30;;;;;;5102287;28;20039;-67
2021/06/10 10:24:00;;;;;;;6.40;5.80;;;27.60;50.70;;;;;;5092763;28;20036;-67
2021/06/10 10:26:27;;;;;;;6.45;5.68;;;27.60;49.90;;;;;;5099914;28;20044;-67
2021/06/10 10:28:53;;;;;;;6.40;5.15;;;27.60;51.70;;;;;;5099468;28;20175;-67
2021/06/10 10:31:19;;;;;;;7.55;5.32;;;27.80;50.20;;;;;;5104059;28;21291;-65
2021/06/10 10:33:48;;;;;;;8.32;4.30;;;27.80;49.10;;;;;;5093455;28;20062;-65
2021/06/10 10:36:30;;;;;;;5.57;4.30;;;27.80;49.20;;;;;;5107706;28;20072;-65
2021/06/10 10:38:57;;;;;;;6.18;4.20;;;27.80;49.40;;;;;;5098415;28;20042;-65
2021/06/10 10:41:23;;;;;;;4.38;3.97;;;27.80;51.20;;;;;;5107446;27;20532;-65
2021/06/10 10:43:50;;;;;;;9.85;4.60;;;28.00;50.80;;;;;;5092335;28;20051;-65
2021/06/10 10:46:19;;;;;;;4.53;3.85;;;28.20;49.60;;;;;;5102699;28;20491;-65
2021/06/10 10:48:50;;;;;;;3.55;3.25;;;28.40;49.90;;;;;;5093627;28;20176;-65
2021/06/10 10:51:37;;;;;;;7.90;3.88;;;28.60;47.10;;;;;;5109055;28;20181;-65
2021/06/10 10:54:10;;;;;;;5.57;4.28;;;28.80;49.60;;;;;;5094953;28;20051;-65
2021/06/10 10:56:43;;;;;;;5.40;4.35;;;29.00;48.90;;;;;;5107393;28;20071;-65
2021/06/10 10:59:19;;;;;;;4.50;3.80;;;29.10;46.70;;;;;;5093396;28;20059;-65
2021/06/10 11:02:05;;;;;;;4.35;3.10;;;29.00;46.80;;;;;;5096181;28;20051;-66
2021/06/10 11:04:51;;;;;;;3.80;3.38;;;29.10;47.60;;;;;;5097823;28;20082;-65
2021/06/10 11:07:33;;;;;;;4.63;2.15;;;29.30;43.20;;;;;;5102374;28;20439;-65
2021/06/10 11:10:49;;;;;;;2.13;1.90;;;29.30;44.20;;;;;;5093590;28;20053;-66
2021/06/10 11:13:16;;;;;;;2.55;2.22;;;29.00;41.70;;;;;;5080545;28;20040;-67
2021/06/10 11:15:42;;;;;;;4.05;3.20;;;28.90;44.40;;;;;;5088704;28;20098;-67
2021/06/10 11:18:08;;;;;;;3.47;3.13;;;29.30;46.70;;;;;;5096854;27;20091;-65
2021/06/10 11:20:43;;;;;;;4.18;2.83;;;29.60;45.20;;;;;;5091616;28;20040;-65
2021/06/10 11:23:26;;;;;;;4.68;2.70;;;30.00;46.80;;;;;;5100886;28;20052;-67
2021/06/10 11:25:53;;;;;;;4.10;3.70;;;30.40;44.80;;;;;;5093958;28;20050;-67
2021/06/10 11:28:20;;;;;;;3.60;2.35;;;30.70;45.00;;;;;;5101087;28;20289;-65
2021/06/10 11:30:47;;;;;;;4.70;2.67;;;30.90;44.20;;;;;;5094348;28;20031;-65
2021/06/10 11:33:19;;;;;;;5.13;2.80;;;30.90;42.30;;;;;;5104780;28;20048;-66
2021/06/10 11:35:50;;;;;;;2.85;2.40;;;31.10;40.90;;;;;;5091589;28;20086;-66
2021/06/10 11:38:24;;;;;;;4.75;3.25;;;31.20;42.20;;;;;;5106889;28;20152;-66
2021/06/10 11:41:12;;;;;;;4.60;2.58;;;31.40;40.40;;;;;;5093720;27;20035;-66
2021/06/10 11:43:47;;;;;;;3.58;2.30;;;31.60;41.40;;;;;;5107499;28;20047;-67
2021/06/10 11:46:15;;;;;;;3.20;2.15;;;31.70;41.90;;;;;;5092448;28;20039;-66
2021/06/10 11:48:49;;;;;;;3.22;2.40;;;31.70;41.50;;;;;;5104081;28;20039;-66
2021/06/10 11:51:27;;;;;;;2.92;1.85;;;31.90;41.60;;;;;;5091339;28;20428;-66
2021/06/10 11:53:57;;;;;;;3.25;2.20;;;32.00;40.00;;;;;;5101487;27;20051;-65
2021/06/10 11:56:28;;;;;;;4.50;2.53;;;32.10;40.00;;;;;;5095350;28;20044;-66
2021/06/10 11:58:58;;;;;;;4.75;2.67;;;32.30;40.50;;;;;;5096400;28;20044;-67
2021/06/10 12:01:24;;;;;;;6.38;3.03;;;32.30;40.50;;;;;;5088385;28;20408;-68
2021/06/10 12:03:50;;;;;;;7.47;2.33;;;32.20;39.10;;;;;;5102367;28;20042;-84
2021/06/10 12:06:17;;;;;;;3.58;2.00;;;31.70;37.70;;;;;;5079859;28;20489;-73
2021/06/10 12:08:47;;;;;;;8.02;7.38;;;31.20;38.70;;;;;;5105354;28;20028;-77
2021/06/10 12:11:15;;;;;;;5.00;4.40;;;31.10;39.60;;;;;;5092453;28;20123;-73
2021/06/10 12:13:44;;;;;;;3.80;2.50;;;31.40;41.20;;;;;;5100852;28;20054;-71
2021/06/10 12:16:17;;;;;;;4.30;2.80;;;31.60;41.30;;;;;;5088736;28;20036;-70
2021/06/10 12:18:45;;;;;;;;;;;31.70;40.40;;;;;;5092935;28;20085;-69
2021/06/10 12:21:17;;;;;;;4.65;2.15;;;31.30;37.30;;;;;;5106857;27;19931;-70
2021/06/10 12:23:51;;;;;;;3.65;2.08;;;31.00;37.60;;;;;;5097880;28;20376;-70
2021/06/10 12:26:19;;;;;;;2.92;1.88;;;30.60;39.30;;;;;;5106122;28;20068;-69
2021/06/10 12:28:48;;;;;;;4.68;2.65;;;30.10;38.70;;;;;;5095191;28;20071;-70
2021/06/10 12:31:20;;;;;;;2.42;1.77;;;29.90;41.40;;;;;;5103142;28;20456;-70
2021/06/10 12:33:51;;;;;;;3.92;2.10;;;30.00;39.80;;;;;;5074790;28;20533;-70
2021/06/10 12:36:34;;;;;;;5.00;2.55;;;29.90;39.80;;;;;;5093399;28;20040;-70
2021/06/10 12:39:08;;;;;;;5.03;2.90;;;29.60;41.30;;;;;;5091267;28;20050;-70
2021/06/10 12:41:46;;;;;;;3.85;2.53;;;29.50;41.30;;;;;;5095531;28;20047;-70
2021/06/10 12:44:21;;;;;;;3.88;2.10;;;29.50;42.20;;;;;;5097362;28;20047;-70